sensor_id;sensor_type;location;lat;lon;timestamp;pressure;altitude;pressure_sealevel;temperature;humidity
7200;BME280;3641;49.082;8.200;2023-03-25T00:01:00;99700.25;;;9.05;88.16
7200;BME280;3641;49.082;8.200;2023-03-25T00:03:28;99709.19;;;8.84;88.58
7200;BME280;3641;49.082;8.200;2023-03-25T00:05:55;99707.50;;;8.83;88.53
7200;BME280;3641;49.082;8.200;2023-03-25T00:08:24;99698.09;;;9.00;87.01
7200;BME280;3641;49.082;8.200;2023-03-25T00:10:51;99704.56;;;8.99;88.13
7200;BME280;3641;49.082;8.200;2023-03-25T00:13:18;99698.47;;;8.97;87.80
7200;BME280;3641;49.082;8.200;2023-03-25T00:15:45;99709.66;;;8.87;87.97
7200;BME280;3641;49.082;8.200;2023-03-25T00:18:12;99697.75;;;8.73;88.03
7200;BME280;3641;49.082;8.200;2023-03-25T00:20:39;99687.09;;;9.08;86.75
7200;BME280;3641;49.082;8.200;2023-03-25T00:23:06;99693.25;;;8.81;86.78
7200;BME280;3641;49.082;8.200;2023-03-25T00:25:34;99691.53;;;8.95;86.39
7200;BME280;3641;49.082;8.200;2023-03-25T00:28:00;99696.56;;;9.13;86.39
7200;BME280;3641;49.082;8.200;2023-03-25T00:30:27;99695.50;;;8.92;86.04
7200;BME280;3641;49.082;8.200;2023-03-25T00:32:53;99690.53;;;9.17;84.96
7200;BME280;3641;49.082;8.200;2023-03-25T00:35:22;99692.56;;;8.94;85.81
7200;BME280;3641;49.082;8.200;2023-03-25T00:37:51;99700.44;;;8.88;85.41
7200;BME280;3641;49.082;8.200;2023-03-25T00:40:21;99684.78;;;8.90;85.51
7200;BME280;3641;49.082;8.200;2023-03-25T00:42:49;99688.47;;;8.83;85.32
7200;BME280;3641;49.082;8.200;2023-03-25T00:45:16;99681.06;;;8.77;85.96
7200;BME280;3641;49.082;8.200;2023-03-25T00:47:42;99678.88;;;8.87;85.80
7200;BME280;3641;49.082;8.200;2023-03-25T00:50:09;99677.78;;;9.18;85.11
7200;BME280;3641;49.082;8.200;2023-03-25T00:52:36;99672.31;;;8.81;85.56
7200;BME280;3641;49.082;8.200;2023-03-25T00:55:03;99668.09;;;8.79;85.32
7200;BME280;3641;49.082;8.200;2023-03-25T00:57:30;99665.84;;;8.82;84.04
7200;BME280;3641;49.082;8.200;2023-03-25T00:59:58;99671.81;;;8.93;84.04
7200;BME280;3641;49.082;8.200;2023-03-25T01:02:25;99656.38;;;8.78;84.52
7200;BME280;3641;49.082;8.200;2023-03-25T01:04:51;99647.59;;;8.98;83.37
7200;BME280;3641;49.082;8.200;2023-03-25T01:07:19;99652.25;;;9.04;84.63
7200;BME280;3641;49.082;8.200;2023-03-25T01:09:46;99645.31;;;9.01;83.11
7200;BME280;3641;49.082;8.200;2023-03-25T01:12:14;99655.38;;;9.01;83.11
7200;BME280;3641;49.082;8.200;2023-03-25T01:14:41;99649.41;;;9.12;82.53
7200;BME280;3641;49.082;8.200;2023-03-25T01:17:09;99648.72;;;9.03;83.87
7200;BME280;3641;49.082;8.200;2023-03-25T01:19:35;99654.19;;;8.88;83.64
7200;BME280;3641;49.082;8.200;2023-03-25T01:22:02;99675.94;;;9.03;82.86
7200;BME280;3641;49.082;8.200;2023-03-25T01:24:28;99690.81;;;8.86;85.23
7200;BME280;3641;49.082;8.200;2023-03-25T01:26:55;99691.50;;;8.43;86.53
7200;BME280;3641;49.082;8.200;2023-03-25T01:29:22;99694.38;;;8.71;90.28
7200;BME280;3641;49.082;8.200;2023-03-25T01:31:48;99688.56;;;8.30;90.24
7200;BME280;3641;49.082;8.200;2023-03-25T01:34:17;99684.19;;;8.59;89.69
7200;BME280;3641;49.082;8.200;2023-03-25T01:36:43;99721.84;;;8.32;88.30
7200;BME280;3641;49.082;8.200;2023-03-25T01:39:12;99701.47;;;8.13;89.62
7200;BME280;3641;49.082;8.200;2023-03-25T01:41:41;99710.72;;;8.04;90.34
7200;BME280;3641;49.082;8.200;2023-03-25T01:47:14;99682.22;;;8.52;88.99
7200;BME280;3641;49.082;8.200;2023-03-25T01:49:44;99667.00;;;8.28;90.07
7200;BME280;3641;49.082;8.200;2023-03-25T01:52:13;99661.56;;;8.43;90.44
7200;BME280;3641;49.082;8.200;2023-03-25T01:54:41;99664.38;;;8.50;89.33
7200;BME280;3641;49.082;8.200;2023-03-25T01:57:09;99661.75;;;8.57;88.38
7200;BME280;3641;49.082;8.200;2023-03-25T01:59:38;99657.69;;;8.37;89.27
7200;BME280;3641;49.082;8.200;2023-03-25T02:02:06;99666.22;;;8.19;88.80
7200;BME280;3641;49.082;8.200;2023-03-25T02:04:38;99663.13;;;8.23;89.56
7200;BME280;3641;49.082;8.200;2023-03-25T02:07:10;99674.19;;;8.21;89.88
7200;BME280;3641;49.082;8.200;2023-03-25T02:09:40;99669.22;;;8.10;89.34
7200;BME280;3641;49.082;8.200;2023-03-25T02:12:07;99672.44;;;8.28;89.61
7200;BME280;3641;49.082;8.200;2023-03-25T02:14:35;99672.97;;;8.09;89.27
7200;BME280;3641;49.082;8.200;2023-03-25T02:17:11;99669.41;;;8.08;89.12
7200;BME280;3641;49.082;8.200;2023-03-25T02:20:02;99671.22;;;7.63;90.18
7200;BME280;3641;49.082;8.200;2023-03-25T02:25:57;99670.75;;;8.12;87.54
7200;BME280;3641;49.082;8.200;2023-03-25T02:28:34;99682.13;;;7.93;86.93
7200;BME280;3641;49.082;8.200;2023-03-25T02:31:23;99690.31;;;7.70;87.46
7200;BME280;3641;49.082;8.200;2023-03-25T02:34:08;99699.06;;;7.80;88.04
7200;BME280;3641;49.082;8.200;2023-03-25T02:37:26;99691.22;;;7.62;88.03
7200;BME280;3641;49.082;8.200;2023-03-25T02:40:02;99688.41;;;7.55;87.36
7200;BME280;3641;49.082;8.200;2023-03-25T02:42:35;99690.47;;;7.53;88.63
7200;BME280;3641;49.082;8.200;2023-03-25T02:45:06;99696.13;;;7.67;87.77
7200;BME280;3641;49.082;8.200;2023-03-25T02:47:37;99691.97;;;7.56;89.31
7200;BME280;3641;49.082;8.200;2023-03-25T02:50:08;99699.06;;;7.34;89.26
7200;BME280;3641;49.082;8.200;2023-03-25T02:52:38;99706.41;;;7.56;90.05
7200;BME280;3641;49.082;8.200;2023-03-25T02:55:10;99714.47;;;7.18;90.25
7200;BME280;3641;49.082;8.200;2023-03-25T02:57:41;99717.13;;;7.50;89.33
7200;BME280;3641;49.082;8.200;2023-03-25T03:00:11;99711.16;;;7.54;89.46
7200;BME280;3641;49.082;8.200;2023-03-25T03:02:42;99705.44;;;7.72;88.99
7200;BME280;3641;49.082;8.200;2023-03-25T03:05:22;99709.34;;;7.46;89.63
7200;BME280;3641;49.082;8.200;2023-03-25T03:07:53;99703.13;;;7.38;89.93
7200;BME280;3641;49.082;8.200;2023-03-25T03:10:25;99703.66;;;7.79;88.85
7200;BME280;3641;49.082;8.200;2023-03-25T03:13:02;99696.13;;;7.43;88.87
7200;BME280;3641;49.082;8.200;2023-03-25T03:15:38;99695.84;;;7.61;88.48
7200;BME280;3641;49.082;8.200;2023-03-25T03:18:13;99693.63;;;7.80;87.97
7200;BME280;3641;49.082;8.200;2023-03-25T03:20:46;99697.97;;;7.89;87.32
7200;BME280;3641;49.082;8.200;2023-03-25T03:23:23;99699.50;;;7.69;88.00
7200;BME280;3641;49.082;8.200;2023-03-25T03:25:54;99699.94;;;7.95;86.67
7200;BME280;3641;49.082;8.200;2023-03-25T03:28:26;99694.94;;;7.69;86.38
7200;BME280;3641;49.082;8.200;2023-03-25T03:30:59;99696.44;;;7.49;86.70
7200;BME280;3641;49.082;8.200;2023-03-25T03:33:34;99699.19;;;7.63;86.92
7200;BME280;3641;49.082;8.200;2023-03-25T03:36:05;99702.28;;;7.60;86.08
7200;BME280;3641;49.082;8.200;2023-03-25T03:38:37;99706.72;;;7.76;85.80
7200;BME280;3641;49.082;8.200;2023-03-25T03:41:09;99695.75;;;7.70;85.38
7200;BME280;3641;49.082;8.200;2023-03-25T03:43:40;99708.81;;;7.74;85.39
7200;BME280;3641;49.082;8.200;2023-03-25T03:46:13;99710.91;;;7.64;85.08
7200;BME280;3641;49.082;8.200;2023-03-25T03:48:43;99712.41;;;7.90;85.33
7200;BME280;3641;49.082;8.200;2023-03-25T03:51:15;99703.41;;;7.89;85.20
7200;BME280;3641;49.082;8.200;2023-03-25T03:53:47;99702.72;;;7.72;85.26
7200;BME280;3641;49.082;8.200;2023-03-25T03:56:17;99707.28;;;7.72;84.53
7200;BME280;3641;49.082;8.200;2023-03-25T03:58:47;99690.50;;;7.68;84.57
7200;BME280;3641;49.082;8.200;2023-03-25T04:01:21;99705.84;;;7.61;85.21
7200;BME280;3641;49.082;8.200;2023-03-25T04:03:57;99699.75;;;7.59;85.05
7200;BME280;3641;49.082;8.200;2023-03-25T04:06:27;99702.66;;;7.57;84.28
7200;BME280;3641;49.082;8.200;2023-03-25T04:09:02;99707.06;;;7.58;84.77
7200;BME280;3641;49.082;8.200;2023-03-25T04:11:37;99709.06;;;7.64;84.10
7200;BME280;3641;49.082;8.200;2023-03-25T04:14:06;99719.56;;;7.68;84.90
7200;BME280;3641;49.082;8.200;2023-03-25T04:16:34;99721.66;;;7.57;84.15
7200;BME280;3641;49.082;8.200;2023-03-25T04:19:01;99715.44;;;7.72;83.83
7200;BME280;3641;49.082;8.200;2023-03-25T04:21:28;99728.84;;;7.73;84.38
7200;BME280;3641;49.082;8.200;2023-03-25T04:23:55;99719.66;;;7.74;83.65
7200;BME280;3641;49.082;8.200;2023-03-25T04:26:25;99721.72;;;7.72;84.38
7200;BME280;3641;49.082;8.200;2023-03-25T04:28:53;99720.84;;;7.95;83.51
7200;BME280;3641;49.082;8.200;2023-03-25T04:31:19;99722.88;;;7.93;83.60
7200;BME280;3641;49.082;8.200;2023-03-25T04:33:46;99720.31;;;7.76;82.46
7200;BME280;3641;49.082;8.200;2023-03-25T04:36:14;99725.81;;;7.68;82.10
7200;BME280;3641;49.082;8.200;2023-03-25T04:38:42;99743.28;;;7.74;82.73
7200;BME280;3641;49.082;8.200;2023-03-25T04:41:10;99730.41;;;7.68;82.75
7200;BME280;3641;49.082;8.200;2023-03-25T04:43:38;99730.34;;;7.53;83.79
7200;BME280;3641;49.082;8.200;2023-03-25T04:46:09;99722.19;;;7.53;85.25
7200;BME280;3641;49.082;8.200;2023-03-25T04:48:38;99725.47;;;7.71;85.01
7200;BME280;3641;49.082;8.200;2023-03-25T04:51:06;99712.47;;;7.81;85.57
7200;BME280;3641;49.082;8.200;2023-03-25T04:53:34;99724.47;;;7.64;84.09
7200;BME280;3641;49.082;8.200;2023-03-25T04:56:01;99727.94;;;7.81;85.30
7200;BME280;3641;49.082;8.200;2023-03-25T04:58:29;99721.47;;;7.82;84.29
7200;BME280;3641;49.082;8.200;2023-03-25T05:00:57;99731.78;;;7.87;84.25
7200;BME280;3641;49.082;8.200;2023-03-25T05:03:31;99748.31;;;8.00;84.17
7200;BME280;3641;49.082;8.200;2023-03-25T05:05:58;99749.19;;;7.77;83.66
7200;BME280;3641;49.082;8.200;2023-03-25T05:08:24;99742.66;;;7.87;83.85
7200;BME280;3641;49.082;8.200;2023-03-25T05:10:51;99737.25;;;8.02;84.01
7200;BME280;3641;49.082;8.200;2023-03-25T05:13:17;99743.31;;;8.27;83.10
7200;BME280;3641;49.082;8.200;2023-03-25T05:15:44;99731.09;;;7.85;84.81
7200;BME280;3641;49.082;8.200;2023-03-25T05:18:12;99720.50;;;7.75;84.12
7200;BME280;3641;49.082;8.200;2023-03-25T05:20:42;99723.50;;;7.80;84.52
7200;BME280;3641;49.082;8.200;2023-03-25T05:23:10;99716.78;;;7.91;83.51
7200;BME280;3641;49.082;8.200;2023-03-25T05:25:40;99731.16;;;7.99;83.28
7200;BME280;3641;49.082;8.200;2023-03-25T05:28:07;99730.13;;;8.00;83.19
7200;BME280;3641;49.082;8.200;2023-03-25T05:30:38;99720.50;;;8.13;82.33
7200;BME280;3641;49.082;8.200;2023-03-25T05:33:06;99724.88;;;7.99;82.60
7200;BME280;3641;49.082;8.200;2023-03-25T05:35:34;99724.13;;;8.05;82.89
7200;BME280;3641;49.082;8.200;2023-03-25T05:38:02;99731.28;;;8.06;82.66
7200;BME280;3641;49.082;8.200;2023-03-25T05:40:29;99731.03;;;7.93;80.93
7200;BME280;3641;49.082;8.200;2023-03-25T05:42:56;99741.22;;;8.14;81.80
7200;BME280;3641;49.082;8.200;2023-03-25T05:45:22;99724.75;;;8.15;81.18
7200;BME280;3641;49.082;8.200;2023-03-25T05:47:49;99735.47;;;8.09;81.08
7200;BME280;3641;49.082;8.200;2023-03-25T05:50:16;99738.25;;;8.24;81.99
7200;BME280;3641;49.082;8.200;2023-03-25T05:52:43;99724.69;;;8.00;80.55
7200;BME280;3641;49.082;8.200;2023-03-25T05:55:14;99746.84;;;8.12;80.67
7200;BME280;3641;49.082;8.200;2023-03-25T05:57:41;99745.53;;;8.23;81.24
7200;BME280;3641;49.082;8.200;2023-03-25T06:00:08;99757.38;;;8.30;80.67
7200;BME280;3641;49.082;8.200;2023-03-25T06:02:37;99756.41;;;8.23;81.24
7200;BME280;3641;49.082;8.200;2023-03-25T06:05:08;99762.03;;;8.22;81.21
7200;BME280;3641;49.082;8.200;2023-03-25T06:07:38;99760.94;;;8.31;80.91
7200;BME280;3641;49.082;8.200;2023-03-25T06:10:07;99753.78;;;8.15;81.17
7200;BME280;3641;49.082;8.200;2023-03-25T06:12:35;99759.72;;;8.33;81.60
7200;BME280;3641;49.082;8.200;2023-03-25T06:15:03;99769.63;;;8.26;82.38
7200;BME280;3641;49.082;8.200;2023-03-25T06:17:30;99767.69;;;8.35;82.60
7200;BME280;3641;49.082;8.200;2023-03-25T06:19:57;99786.75;;;8.12;86.40
7200;BME280;3641;49.082;8.200;2023-03-25T06:22:24;99763.16;;;8.12;87.83
7200;BME280;3641;49.082;8.200;2023-03-25T06:24:51;99759.94;;;8.09;89.63
7200;BME280;3641;49.082;8.200;2023-03-25T06:27:18;99771.75;;;7.78;90.00
7200;BME280;3641;49.082;8.200;2023-03-25T06:29:46;99775.28;;;7.87;89.91
7200;BME280;3641;49.082;8.200;2023-03-25T06:32:13;99777.19;;;8.01;89.47
7200;BME280;3641;49.082;8.200;2023-03-25T06:34:40;99786.28;;;8.08;89.55
7200;BME280;3641;49.082;8.200;2023-03-25T06:37:09;99767.78;;;7.89;90.25
7200;BME280;3641;49.082;8.200;2023-03-25T06:39:36;99780.53;;;7.88;89.75
7200;BME280;3641;49.082;8.200;2023-03-25T06:42:04;99771.31;;;7.89;90.64
7200;BME280;3641;49.082;8.200;2023-03-25T06:44:30;99773.41;;;8.25;87.44
7200;BME280;3641;49.082;8.200;2023-03-25T06:46:58;99780.34;;;8.28;87.65
7200;BME280;3641;49.082;8.200;2023-03-25T06:49:26;99776.06;;;8.10;88.25
7200;BME280;3641;49.082;8.200;2023-03-25T06:51:53;99780.66;;;8.33;87.31
7200;BME280;3641;49.082;8.200;2023-03-25T06:54:19;99779.13;;;8.30;87.20
7200;BME280;3641;49.082;8.200;2023-03-25T06:56:46;99773.78;;;8.37;87.49
7200;BME280;3641;49.082;8.200;2023-03-25T06:59:13;99783.47;;;8.40;86.80
7200;BME280;3641;49.082;8.200;2023-03-25T07:01:40;99771.53;;;8.26;87.39
7200;BME280;3641;49.082;8.200;2023-03-25T07:04:08;99768.41;;;8.14;88.14
7200;BME280;3641;49.082;8.200;2023-03-25T07:06:34;99770.41;;;8.20;88.09
7200;BME280;3641;49.082;8.200;2023-03-25T07:09:01;99766.53;;;8.14;88.92
7200;BME280;3641;49.082;8.200;2023-03-25T07:11:28;99765.69;;;8.14;100.00
7200;BME280;3641;49.082;8.200;2023-03-25T07:13:55;99774.03;;;8.12;96.71
7200;BME280;3641;49.082;8.200;2023-03-25T07:16:22;99770.34;;;8.05;94.51
7200;BME280;3641;49.082;8.200;2023-03-25T07:18:49;99766.44;;;8.08;93.77
7200;BME280;3641;49.082;8.200;2023-03-25T07:21:17;99770.31;;;8.28;92.29
7200;BME280;3641;49.082;8.200;2023-03-25T07:23:44;99764.19;;;8.11;93.21
7200;BME280;3641;49.082;8.200;2023-03-25T07:26:11;99782.69;;;8.31;91.89
7200;BME280;3641;49.082;8.200;2023-03-25T07:28:38;99769.81;;;8.25;88.64
7200;BME280;3641;49.082;8.200;2023-03-25T07:31:06;99764.19;;;8.11;91.45
7200;BME280;3641;49.082;8.200;2023-03-25T07:33:33;99773.41;;;8.40;88.60
7200;BME280;3641;49.082;8.200;2023-03-25T07:35:59;99762.31;;;8.50;87.77
7200;BME280;3641;49.082;8.200;2023-03-25T07:38:27;99765.25;;;8.25;88.78
7200;BME280;3641;49.082;8.200;2023-03-25T07:40:54;99768.41;;;8.14;89.21
7200;BME280;3641;49.082;8.200;2023-03-25T07:43:20;99761.19;;;8.06;88.83
7200;BME280;3641;49.082;8.200;2023-03-25T07:45:47;99778.94;;;8.32;88.08
7200;BME280;3641;49.082;8.200;2023-03-25T07:48:13;99783.22;;;8.11;89.64
7200;BME280;3641;49.082;8.200;2023-03-25T07:50:41;99777.91;;;7.95;92.42
7200;BME280;3641;49.082;8.200;2023-03-25T07:53:08;99778.97;;;8.09;93.68
7200;BME280;3641;49.082;8.200;2023-03-25T07:55:36;99785.94;;;8.26;93.05
7200;BME280;3641;49.082;8.200;2023-03-25T07:58:03;99789.47;;;8.35;92.97
7200;BME280;3641;49.082;8.200;2023-03-25T08:00:29;99785.94;;;8.49;90.12
7200;BME280;3641;49.082;8.200;2023-03-25T08:02:56;99790.28;;;8.35;93.02
7200;BME280;3641;49.082;8.200;2023-03-25T08:05:22;99776.28;;;8.47;91.19
7200;BME280;3641;49.082;8.200;2023-03-25T08:07:50;99777.16;;;8.39;89.48
7200;BME280;3641;49.082;8.200;2023-03-25T08:10:17;99764.50;;;8.31;90.19
7200;BME280;3641;49.082;8.200;2023-03-25T08:12:45;99756.59;;;8.45;90.08
7200;BME280;3641;49.082;8.200;2023-03-25T08:15:12;99750.78;;;8.25;91.71
7200;BME280;3641;49.082;8.200;2023-03-25T08:17:39;99757.84;;;8.34;90.60
7200;BME280;3641;49.082;8.200;2023-03-25T08:20:06;99789.47;;;8.35;90.64
7200;BME280;3641;49.082;8.200;2023-03-25T08:22:34;99791.72;;;8.31;90.82
7200;BME280;3641;49.082;8.200;2023-03-25T08:25:00;99783.47;;;6.93;91.43
7200;BME280;3641;49.082;8.200;2023-03-25T08:27:26;99792.13;;;6.88;91.89
7200;BME280;3641;49.082;8.200;2023-03-25T08:29:54;99783.94;;;6.96;92.22
7200;BME280;3641;49.082;8.200;2023-03-25T08:32:22;99794.72;;;7.13;92.59
7200;BME280;3641;49.082;8.200;2023-03-25T08:34:50;99797.56;;;7.27;92.58
7200;BME280;3641;49.082;8.200;2023-03-25T08:37:16;99789.81;;;7.08;93.01
7200;BME280;3641;49.082;8.200;2023-03-25T08:39:43;99794.06;;;7.11;95.15
7200;BME280;3641;49.082;8.200;2023-03-25T08:42:11;99797.03;;;7.24;95.17
7200;BME280;3641;49.082;8.200;2023-03-25T08:44:38;99809.56;;;7.33;96.08
7200;BME280;3641;49.082;8.200;2023-03-25T08:47:07;99803.13;;;7.34;97.77
7200;BME280;3641;49.082;8.200;2023-03-25T08:49:34;99796.81;;;7.65;96.04
7200;BME280;3641;49.082;8.200;2023-03-25T08:52:00;99795.19;;;7.79;95.86
7200;BME280;3641;49.082;8.200;2023-03-25T08:54:28;99796.66;;;7.90;94.21
7200;BME280;3641;49.082;8.200;2023-03-25T08:56:55;99778.41;;;7.98;93.94
7200;BME280;3641;49.082;8.200;2023-03-25T08:59:21;99779.34;;;8.06;93.55
7200;BME280;3641;49.082;8.200;2023-03-25T09:01:48;99785.94;;;8.11;93.44
7200;BME280;3641;49.082;8.200;2023-03-25T09:04:15;99776.41;;;8.30;92.59
7200;BME280;3641;49.082;8.200;2023-03-25T09:06:42;99787.47;;;8.29;92.16
7200;BME280;3641;49.082;8.200;2023-03-25T09:09:08;99770.19;;;8.22;90.77
7200;BME280;3641;49.082;8.200;2023-03-25T09:11:36;99768.63;;;8.27;91.58
7200;BME280;3641;49.082;8.200;2023-03-25T09:14:03;99786.44;;;8.30;91.47
7200;BME280;3641;49.082;8.200;2023-03-25T09:16:30;99787.09;;;8.32;92.44
7200;BME280;3641;49.082;8.200;2023-03-25T09:18:56;99784.25;;;8.48;94.17
7200;BME280;3641;49.082;8.200;2023-03-25T09:21:24;99789.78;;;8.55;93.79
7200;BME280;3641;49.082;8.200;2023-03-25T09:23:51;99791.22;;;8.66;93.86
7200;BME280;3641;49.082;8.200;2023-03-25T09:26:17;99783.22;;;8.49;93.77
7200;BME280;3641;49.082;8.200;2023-03-25T09:28:43;99791.22;;;8.66;93.77
7200;BME280;3641;49.082;8.200;2023-03-25T09:31:10;99797.09;;;8.69;93.36
7200;BME280;3641;49.082;8.200;2023-03-25T09:33:37;99793.28;;;8.79;93.49
7200;BME280;3641;49.082;8.200;2023-03-25T09:36:04;99791.59;;;8.78;93.76
7200;BME280;3641;49.082;8.200;2023-03-25T09:38:32;99786.03;;;8.71;95.15
7200;BME280;3641;49.082;8.200;2023-03-25T09:41:02;99786.31;;;9.06;92.82
7200;BME280;3641;49.082;8.200;2023-03-25T09:43:36;99781.25;;;8.43;94.00
7200;BME280;3641;49.082;8.200;2023-03-25T09:46:05;99795.63;;;8.67;93.75
7200;BME280;3641;49.082;8.200;2023-03-25T09:48:36;99796.94;;;8.86;92.43
7200;BME280;3641;49.082;8.200;2023-03-25T09:51:04;99789.03;;;9.21;91.37
7200;BME280;3641;49.082;8.200;2023-03-25T09:53:37;99789.03;;;9.06;91.42
7200;BME280;3641;49.082;8.200;2023-03-25T09:56:10;99788.91;;;9.29;91.36
7200;BME280;3641;49.082;8.200;2023-03-25T09:58:40;99785.69;;;9.40;89.45
7200;BME280;3641;49.082;8.200;2023-03-25T10:01:18;99789.75;;;9.30;88.35
7200;BME280;3641;49.082;8.200;2023-03-25T10:03:55;99786.91;;;9.38;88.57
7200;BME280;3641;49.082;8.200;2023-03-25T10:06:23;99790.50;;;9.38;89.51
7200;BME280;3641;49.082;8.200;2023-03-25T10:09:08;99794.00;;;9.32;89.71
7200;BME280;3641;49.082;8.200;2023-03-25T10:11:43;99792.03;;;9.26;91.24
7200;BME280;3641;49.082;8.200;2023-03-25T10:14:18;99777.66;;;9.17;94.28
7200;BME280;3641;49.082;8.200;2023-03-25T10:16:58;99793.03;;;9.25;92.83
7200;BME280;3641;49.082;8.200;2023-03-25T10:19:42;99785.56;;;9.12;94.16
7200;BME280;3641;49.082;8.200;2023-03-25T10:22:16;99779.09;;;8.83;94.42
7200;BME280;3641;49.082;8.200;2023-03-25T10:24:47;99776.78;;;8.95;94.51
7200;BME280;3641;49.082;8.200;2023-03-25T10:27:18;99788.56;;;9.02;95.11
7200;BME280;3641;49.082;8.200;2023-03-25T10:29:50;99786.97;;;8.93;95.64
7200;BME280;3641;49.082;8.200;2023-03-25T10:32:29;99787.38;;;9.05;95.18
7200;BME280;3641;49.082;8.200;2023-03-25T10:34:58;99785.69;;;8.89;97.12
7200;BME280;3641;49.082;8.200;2023-03-25T10:37:30;99786.31;;;9.21;96.86
7200;BME280;3641;49.082;8.200;2023-03-25T10:40:11;99766.69;;;9.47;96.42
7200;BME280;3641;49.082;8.200;2023-03-25T10:42:42;99764.91;;;9.76;95.67
7200;BME280;3641;49.082;8.200;2023-03-25T10:45:11;99766.84;;;10.04;93.94
7200;BME280;3641;49.082;8.200;2023-03-25T10:47:39;99765.94;;;10.18;94.62
7200;BME280;3641;49.082;8.200;2023-03-25T10:50:13;99761.47;;;10.39;94.48
7200;BME280;3641;49.082;8.200;2023-03-25T10:52:40;99758.31;;;10.35;91.50
7200;BME280;3641;49.082;8.200;2023-03-25T10:55:20;99754.13;;;10.32;91.10
7200;BME280;3641;49.082;8.200;2023-03-25T10:57:48;99761.72;;;10.37;89.11
7200;BME280;3641;49.082;8.200;2023-03-25T11:00:16;99752.78;;;10.28;88.46
7200;BME280;3641;49.082;8.200;2023-03-25T11:02:44;99761.16;;;10.27;85.83
7200;BME280;3641;49.082;8.200;2023-03-25T11:05:12;99752.91;;;10.42;84.94
7200;BME280;3641;49.082;8.200;2023-03-25T11:07:43;99748.31;;;10.42;83.48
7200;BME280;3641;49.082;8.200;2023-03-25T11:10:19;99752.88;;;10.70;82.09
7200;BME280;3641;49.082;8.200;2023-03-25T11:12:48;99759.25;;;10.84;82.15
7200;BME280;3641;49.082;8.200;2023-03-25T11:15:18;99747.91;;;10.80;80.21
7200;BME280;3641;49.082;8.200;2023-03-25T11:17:46;99742.97;;;11.04;78.34
7200;BME280;3641;49.082;8.200;2023-03-25T11:20:19;99742.16;;;11.17;73.14
7200;BME280;3641;49.082;8.200;2023-03-25T11:22:49;99757.13;;;11.21;73.75
7200;BME280;3641;49.082;8.200;2023-03-25T11:25:22;99758.41;;;11.25;75.83
7200;BME280;3641;49.082;8.200;2023-03-25T11:27:52;99752.16;;;11.38;74.27
7200;BME280;3641;49.082;8.200;2023-03-25T11:30:21;99745.88;;;11.44;71.59
7200;BME280;3641;49.082;8.200;2023-03-25T11:32:56;99749.72;;;11.70;70.82
7200;BME280;3641;49.082;8.200;2023-03-25T11:35:25;99750.94;;;11.67;70.52
7200;BME280;3641;49.082;8.200;2023-03-25T11:37:54;99733.94;;;11.72;68.51
7200;BME280;3641;49.082;8.200;2023-03-25T11:40:22;99771.13;;;11.66;67.50
7200;BME280;3641;49.082;8.200;2023-03-25T11:42:51;99803.00;;;11.39;72.80
7200;BME280;3641;49.082;8.200;2023-03-25T11:45:20;99797.31;;;10.57;75.98
7200;BME280;3641;49.082;8.200;2023-03-25T11:47:47;99796.91;;;10.10;76.50
7200;BME280;3641;49.082;8.200;2023-03-25T11:50:21;99779.41;;;10.48;80.29
7200;BME280;3641;49.082;8.200;2023-03-25T11:52:51;99778.06;;;10.37;78.89
7200;BME280;3641;49.082;8.200;2023-03-25T11:55:21;99757.91;;;10.66;79.58
7200;BME280;3641;49.082;8.200;2023-03-25T11:57:51;99766.63;;;10.83;78.36
7200;BME280;3641;49.082;8.200;2023-03-25T12:00:29;99748.69;;;10.67;77.73
7200;BME280;3641;49.082;8.200;2023-03-25T12:03:02;99759.16;;;10.70;78.35
7200;BME280;3641;49.082;8.200;2023-03-25T12:05:29;99743.84;;;10.69;77.55
7200;BME280;3641;49.082;8.200;2023-03-25T12:08:02;99743.63;;;10.64;75.98
7200;BME280;3641;49.082;8.200;2023-03-25T12:10:37;99749.53;;;10.68;75.95
7200;BME280;3641;49.082;8.200;2023-03-25T12:13:14;99752.13;;;10.89;77.41
7200;BME280;3641;49.082;8.200;2023-03-25T12:15:50;99741.09;;;11.04;71.08
7200;BME280;3641;49.082;8.200;2023-03-25T12:18:34;99752.09;;;11.31;67.49
7200;BME280;3641;49.082;8.200;2023-03-25T12:21:12;99742.75;;;11.67;66.41
7200;BME280;3641;49.082;8.200;2023-03-25T12:23:45;99751.81;;;11.88;65.28
7200;BME280;3641;49.082;8.200;2023-03-25T12:26:18;99728.53;;;12.05;64.60
7200;BME280;3641;49.082;8.200;2023-03-25T12:29:02;99752.06;;;12.26;64.13
7200;BME280;3641;49.082;8.200;2023-03-25T12:31:39;99734.19;;;12.30;55.79
7200;BME280;3641;49.082;8.200;2023-03-25T12:34:17;99732.06;;;12.59;56.90
7200;BME280;3641;49.082;8.200;2023-03-25T12:36:57;99729.31;;;12.52;56.32
7200;BME280;3641;49.082;8.200;2023-03-25T12:39:40;99726.97;;;12.63;56.96
7200;BME280;3641;49.082;8.200;2023-03-25T12:42:18;99730.13;;;12.66;55.02
7200;BME280;3641;49.082;8.200;2023-03-25T12:45:02;99735.59;;;12.66;54.61
7200;BME280;3641;49.082;8.200;2023-03-25T12:47:34;99736.88;;;12.70;55.66
7200;BME280;3641;49.082;8.200;2023-03-25T12:50:19;99719.38;;;12.65;53.66
7200;BME280;3641;49.082;8.200;2023-03-25T12:52:54;99731.13;;;12.85;54.74
7200;BME280;3641;49.082;8.200;2023-03-25T12:55:36;99731.09;;;12.99;54.27
7200;BME280;3641;49.082;8.200;2023-03-25T12:58:32;99739.25;;;13.12;54.68
7200;BME280;3641;49.082;8.200;2023-03-25T13:01:10;99735.97;;;12.83;53.35
7200;BME280;3641;49.082;8.200;2023-03-25T13:03:50;99742.28;;;12.84;55.31
7200;BME280;3641;49.082;8.200;2023-03-25T13:06:24;99743.59;;;12.81;55.44
7200;BME280;3641;49.082;8.200;2023-03-25T13:08:58;99741.88;;;12.87;55.54
7200;BME280;3641;49.082;8.200;2023-03-25T13:11:30;99749.69;;;12.83;54.58
7200;BME280;3641;49.082;8.200;2023-03-25T13:14:04;99738.97;;;12.75;56.22
7200;BME280;3641;49.082;8.200;2023-03-25T13:16:34;99746.56;;;12.66;56.42
7200;BME280;3641;49.082;8.200;2023-03-25T13:19:06;99754.13;;;12.84;58.04
7200;BME280;3641;49.082;8.200;2023-03-25T13:21:38;99764.81;;;12.86;55.16
7200;BME280;3641;49.082;8.200;2023-03-25T13:24:10;99739.09;;;12.94;53.78
7200;BME280;3641;49.082;8.200;2023-03-25T13:26:39;99736.13;;;13.02;57.09
7200;BME280;3641;49.082;8.200;2023-03-25T13:29:12;99738.34;;;13.25;56.55
7200;BME280;3641;49.082;8.200;2023-03-25T13:31:44;99732.03;;;13.24;55.96
7200;BME280;3641;49.082;8.200;2023-03-25T13:34:19;99728.66;;;13.29;56.51
7200;BME280;3641;49.082;8.200;2023-03-25T13:36:57;99722.94;;;13.37;59.44
7200;BME280;3641;49.082;8.200;2023-03-25T13:39:29;99722.47;;;13.47;55.34
7200;BME280;3641;49.082;8.200;2023-03-25T13:42:02;99731.38;;;13.29;53.44
7200;BME280;3641;49.082;8.200;2023-03-25T13:44:34;99741.41;;;12.97;53.81
7200;BME280;3641;49.082;8.200;2023-03-25T13:47:07;99779.38;;;12.86;55.00
7200;BME280;3641;49.082;8.200;2023-03-25T13:49:42;99778.63;;;12.26;63.47
7200;BME280;3641;49.082;8.200;2023-03-25T13:52:13;99750.59;;;12.24;63.54